sensor_id;sensor_type;location;lat;lon;timestamp;pressure;altitude;pressure_sealevel;temperature;humidity
19457;BME280;9867;48.094;11.478;2022-07-10T00:00:26;95701.19;;;18.62;100.00
19457;BME280;9867;48.094;11.478;2022-07-10T00:02:54;95706.41;;;18.62;100.00
19457;BME280;9867;48.094;11.478;2022-07-10T00:05:23;95707.88;;;18.47;100.00
19457;BME280;9867;48.094;11.478;2022-07-10T00:07:52;95697.66;;;18.28;100.00
19457;BME280;9867;48.094;11.478;2022-07-10T00:10:21;95710.22;;;18.20;100.00
19457;BME280;9867;48.094;11.478;2022-07-10T00:12:50;95721.31;;;18.03;100.00
19457;BME280;9867;48.094;11.478;2022-07-10T00:15:19;95709.00;;;17.99;100.00
19457;BME280;9867;48.094;11.478;2022-07-10T00:17:47;95711.19;;;17.79;100.00
19457;BME280;9867;48.094;11.478;2022-07-10T00:20:16;95712.88;;;17.73;100.00
19457;BME280;9867;48.094;11.478;2022-07-10T00:22:44;95725.31;;;17.71;100.00
19457;BME280;9867;48.094;11.478;2022-07-10T00:25:13;95721.66;;;17.60;100.00
19457;BME280;9867;48.094;11.478;2022-07-10T00:27:42;95728.00;;;17.64;100.00
19457;BME280;9867;48.094;11.478;2022-07-10T00:30:11;95725.81;;;17.61;100.00
19457;BME280;9867;48.094;11.478;2022-07-10T00:32:39;95727.53;;;17.44;100.00
19457;BME280;9867;48.094;11.478;2022-07-10T00:35:07;95735.44;;;16.96;100.00
19457;BME280;9867;48.094;11.478;2022-07-10T00:37:35;95739.50;;;16.55;100.00
19457;BME280;9867;48.094;11.478;2022-07-10T00:40:05;95738.13;;;16.23;100.00
19457;BME280;9867;48.094;11.478;2022-07-10T00:42:33;95750.63;;;16.08;100.00
19457;BME280;9867;48.094;11.478;2022-07-10T00:45:02;95739.97;;;15.97;100.00
19457;BME280;9867;48.094;11.478;2022-07-10T00:47:30;95729.25;;;15.94;100.00
19457;BME280;9867;48.094;11.478;2022-07-10T00:49:58;95721.66;;;15.99;100.00
19457;BME280;9867;48.094;11.478;2022-07-10T00:52:27;95710.28;;;16.00;100.00
19457;BME280;9867;48.094;11.478;2022-07-10T00:54:55;95714.91;;;15.98;100.00
19457;BME280;9867;48.094;11.478;2022-07-10T00:57:23;95710.84;;;15.84;100.00
19457;BME280;9867;48.094;11.478;2022-07-10T00:59:51;95703.16;;;15.77;100.00
19457;BME280;9867;48.094;11.478;2022-07-10T01:02:20;95709.56;;;15.75;100.00
19457;BME280;9867;48.094;11.478;2022-07-10T01:04:48;95699.47;;;15.66;100.00
19457;BME280;9867;48.094;11.478;2022-07-10T01:07:16;95695.53;;;15.64;100.00
19457;BME280;9867;48.094;11.478;2022-07-10T01:09:46;95690.81;;;15.54;100.00
19457;BME280;9867;48.094;11.478;2022-07-10T01:12:17;95690.34;;;15.64;100.00
19457;BME280;9867;48.094;11.478;2022-07-10T01:14:45;95681.28;;;15.55;100.00
19457;BME280;9867;48.094;11.478;2022-07-10T01:17:13;95684.59;;;15.62;100.00
19457;BME280;9867;48.094;11.478;2022-07-10T01:19:43;95683.09;;;15.73;100.00
19457;BME280;9867;48.094;11.478;2022-07-10T01:22:12;95681.53;;;15.72;100.00
19457;BME280;9867;48.094;11.478;2022-07-10T01:24:40;95678.31;;;15.76;100.00
19457;BME280;9867;48.094;11.478;2022-07-10T01:27:11;95671.41;;;15.70;100.00
19457;BME280;9867;48.094;11.478;2022-07-10T01:29:39;95677.19;;;15.65;100.00
19457;BME280;9867;48.094;11.478;2022-07-10T01:32:07;95681.94;;;15.68;100.00
19457;BME280;9867;48.094;11.478;2022-07-10T01:34:36;95679.53;;;15.49;100.00
19457;BME280;9867;48.094;11.478;2022-07-10T01:37:03;95660.31;;;15.38;100.00
19457;BME280;9867;48.094;11.478;2022-07-10T01:39:33;95656.28;;;15.24;100.00
19457;BME280;9867;48.094;11.478;2022-07-10T01:42:01;95665.94;;;15.10;100.00
19457;BME280;9867;48.094;11.478;2022-07-10T01:44:28;95661.41;;;15.06;100.00
19457;BME280;9867;48.094;11.478;2022-07-10T01:46:56;95648.28;;;15.07;100.00
19457;BME280;9867;48.094;11.478;2022-07-10T01:49:24;95620.66;;;15.08;100.00
19457;BME280;9867;48.094;11.478;2022-07-10T01:51:52;95624.63;;;15.28;100.00
19457;BME280;9867;48.094;11.478;2022-07-10T01:54:20;95625.34;;;15.35;100.00
19457;BME280;9867;48.094;11.478;2022-07-10T01:56:49;95622.91;;;15.41;100.00
19457;BME280;9867;48.094;11.478;2022-07-10T01:59:19;95623.50;;;15.43;100.00
19457;BME280;9867;48.094;11.478;2022-07-10T02:01:47;95614.50;;;15.45;100.00
19457;BME280;9867;48.094;11.478;2022-07-10T02:04:15;95612.50;;;15.47;100.00
19457;BME280;9867;48.094;11.478;2022-07-10T02:07:08;95621.69;;;15.43;100.00
19457;BME280;9867;48.094;11.478;2022-07-10T02:09:37;95627.38;;;15.52;100.00
19457;BME280;9867;48.094;11.478;2022-07-10T02:12:08;95625.28;;;15.42;100.00
19457;BME280;9867;48.094;11.478;2022-07-10T02:14:37;95614.09;;;15.48;100.00
19457;BME280;9867;48.094;11.478;2022-07-10T02:17:06;95616.03;;;15.53;100.00
19457;BME280;9867;48.094;11.478;2022-07-10T02:19:34;95619.19;;;15.55;100.00
19457;BME280;9867;48.094;11.478;2022-07-10T02:22:03;95625.56;;;15.59;100.00
19457;BME280;9867;48.094;11.478;2022-07-10T02:24:30;95626.69;;;15.63;100.00
19457;BME280;9867;48.094;11.478;2022-07-10T02:26:58;95628.25;;;15.64;100.00
19457;BME280;9867;48.094;11.478;2022-07-10T02:29:27;95634.03;;;15.66;100.00
19457;BME280;9867;48.094;11.478;2022-07-10T02:31:55;95627.69;;;15.62;100.00
19457;BME280;9867;48.094;11.478;2022-07-10T02:34:23;95633.09;;;15.79;100.00
19457;BME280;9867;48.094;11.478;2022-07-10T02:36:52;95622.44;;;15.68;100.00
19457;BME280;9867;48.094;11.478;2022-07-10T02:39:20;95619.44;;;15.72;100.00
19457;BME280;9867;48.094;11.478;2022-07-10T02:41:50;95617.66;;;15.72;100.00
19457;BME280;9867;48.094;11.478;2022-07-10T02:44:18;95623.59;;;15.73;100.00
19457;BME280;9867;48.094;11.478;2022-07-10T02:46:47;95628.13;;;15.77;100.00
19457;BME280;9867;48.094;11.478;2022-07-10T02:49:15;95637.97;;;15.87;100.00
19457;BME280;9867;48.094;11.478;2022-07-10T02:51:43;95635.53;;;15.74;100.00
19457;BME280;9867;48.094;11.478;2022-07-10T02:54:11;95621.03;;;15.73;100.00
19457;BME280;9867;48.094;11.478;2022-07-10T02:56:39;95626.63;;;15.69;100.00
19457;BME280;9867;48.094;11.478;2022-07-10T02:59:07;95627.19;;;15.72;100.00
19457;BME280;9867;48.094;11.478;2022-07-10T03:01:35;95626.78;;;15.75;100.00
19457;BME280;9867;48.094;11.478;2022-07-10T03:04:04;95627.19;;;15.72;100.00
19457;BME280;9867;48.094;11.478;2022-07-10T03:06:32;95636.41;;;15.67;100.00
19457;BME280;9867;48.094;11.478;2022-07-10T03:09:00;95628.69;;;15.61;100.00
19457;BME280;9867;48.094;11.478;2022-07-10T03:11:28;95630.41;;;15.49;100.00
19457;BME280;9867;48.094;11.478;2022-07-10T03:13:56;95631.81;;;15.45;100.00
19457;BME280;9867;48.094;11.478;2022-07-10T03:16:24;95618.53;;;15.41;100.00
19457;BME280;9867;48.094;11.478;2022-07-10T03:18:52;95617.16;;;15.39;100.00
19457;BME280;9867;48.094;11.478;2022-07-10T03:21:21;95610.50;;;15.31;100.00
19457;BME280;9867;48.094;11.478;2022-07-10T03:23:50;95622.25;;;15.27;100.00
19457;BME280;9867;48.094;11.478;2022-07-10T03:26:17;95614.13;;;15.23;100.00
19457;BME280;9867;48.094;11.478;2022-07-10T03:28:45;95618.16;;;15.19;100.00
19457;BME280;9867;48.094;11.478;2022-07-10T03:31:13;95612.22;;;15.12;100.00
19457;BME280;9867;48.094;11.478;2022-07-10T03:33:41;95611.31;;;15.07;100.00
19457;BME280;9867;48.094;11.478;2022-07-10T03:36:09;95622.22;;;15.09;100.00
19457;BME280;9867;48.094;11.478;2022-07-10T03:38:38;95625.81;;;15.08;100.00
19457;BME280;9867;48.094;11.478;2022-07-10T03:41:07;95624.88;;;15.02;100.00
19457;BME280;9867;48.094;11.478;2022-07-10T03:43:35;95627.44;;;15.02;100.00
19457;BME280;9867;48.094;11.478;2022-07-10T03:46:03;95627.25;;;15.04;100.00
19457;BME280;9867;48.094;11.478;2022-07-10T03:48:31;95624.59;;;15.10;100.00
19457;BME280;9867;48.094;11.478;2022-07-10T03:51:00;95639.56;;;15.01;100.00
19457;BME280;9867;48.094;11.478;2022-07-10T03:53:28;95630.97;;;15.08;100.00
19457;BME280;9867;48.094;11.478;2022-07-10T03:55:57;95628.59;;;15.06;100.00
19457;BME280;9867;48.094;11.478;2022-07-10T03:58:27;95626.81;;;15.07;100.00
19457;BME280;9867;48.094;11.478;2022-07-10T04:00:53;95628.78;;;15.11;100.00
19457;BME280;9867;48.094;11.478;2022-07-10T04:03:21;95625.47;;;15.22;100.00
19457;BME280;9867;48.094;11.478;2022-07-10T04:05:49;95626.31;;;15.16;100.00
19457;BME280;9867;48.094;11.478;2022-07-10T04:08:17;95625.81;;;15.08;100.00
19457;BME280;9867;48.094;11.478;2022-07-10T04:10:45;95627.97;;;15.11;100.00
19457;BME280;9867;48.094;11.478;2022-07-10T04:13:14;95626.06;;;15.24;100.00
19457;BME280;9867;48.094;11.478;2022-07-10T04:15:42;95620.16;;;15.17;100.00
19457;BME280;9867;48.094;11.478;2022-07-10T04:18:10;95629.16;;;15.33;100.00
19457;BME280;9867;48.094;11.478;2022-07-10T04:20:38;95627.72;;;15.37;100.00
19457;BME280;9867;48.094;11.478;2022-07-10T04:23:05;95626.59;;;15.33;100.00
19457;BME280;9867;48.094;11.478;2022-07-10T04:25:33;95626.75;;;15.13;100.00
19457;BME280;9867;48.094;11.478;2022-07-10T04:28:01;95620.22;;;15.11;100.00
19457;BME280;9867;48.094;11.478;2022-07-10T04:30:30;95620.56;;;15.14;100.00
19457;BME280;9867;48.094;11.478;2022-07-10T04:32:58;95608.22;;;15.16;100.00
19457;BME280;9867;48.094;11.478;2022-07-10T04:35:26;95609.19;;;15.22;100.00
19457;BME280;9867;48.094;11.478;2022-07-10T04:37:54;95604.84;;;15.16;100.00
19457;BME280;9867;48.094;11.478;2022-07-10T04:40:22;95608.44;;;15.15;100.00
19457;BME280;9867;48.094;11.478;2022-07-10T04:42:50;95615.78;;;15.18;100.00
19457;BME280;9867;48.094;11.478;2022-07-10T04:45:18;95607.25;;;15.35;100.00
19457;BME280;9867;48.094;11.478;2022-07-10T04:47:47;95622.41;;;15.57;100.00
19457;BME280;9867;48.094;11.478;2022-07-10T04:50:14;95625.03;;;15.68;100.00
19457;BME280;9867;48.094;11.478;2022-07-10T04:52:42;95623.09;;;15.64;100.00
19457;BME280;9867;48.094;11.478;2022-07-10T04:55:10;95628.75;;;15.54;100.00
19457;BME280;9867;48.094;11.478;2022-07-10T04:57:38;95627.03;;;15.48;100.00
19457;BME280;9867;48.094;11.478;2022-07-10T05:00:12;95627.91;;;15.60;100.00
19457;BME280;9867;48.094;11.478;2022-07-10T05:02:40;95640.69;;;15.55;100.00
19457;BME280;9867;48.094;11.478;2022-07-10T05:05:09;95636.25;;;15.62;100.00
19457;BME280;9867;48.094;11.478;2022-07-10T05:07:37;95638.69;;;15.57;100.00
19457;BME280;9867;48.094;11.478;2022-07-10T05:10:06;95642.16;;;15.69;100.00
19457;BME280;9867;48.094;11.478;2022-07-10T05:12:33;95649.06;;;15.76;100.00
19457;BME280;9867;48.094;11.478;2022-07-10T05:15:01;95644.66;;;15.58;100.00
19457;BME280;9867;48.094;11.478;2022-07-10T05:17:29;95654.25;;;15.51;100.00
19457;BME280;9867;48.094;11.478;2022-07-10T05:19:58;95649.72;;;15.46;100.00
19457;BME280;9867;48.094;11.478;2022-07-10T05:22:27;95659.78;;;15.54;100.00
19457;BME280;9867;48.094;11.478;2022-07-10T05:24:56;95656.38;;;15.35;100.00
19457;BME280;9867;48.094;11.478;2022-07-10T05:27:24;95656.94;;;15.38;100.00
19457;BME280;9867;48.094;11.478;2022-07-10T05:29:53;95662.03;;;15.26;100.00
19457;BME280;9867;48.094;11.478;2022-07-10T05:32:21;95663.63;;;15.27;100.00
19457;BME280;9867;48.094;11.478;2022-07-10T05:34:49;95659.31;;;15.39;100.00
19457;BME280;9867;48.094;11.478;2022-07-10T05:37:17;95663.44;;;15.47;100.00
19457;BME280;9867;48.094;11.478;2022-07-10T05:39:46;95668.88;;;15.39;100.00
19457;BME280;9867;48.094;11.478;2022-07-10T05:42:14;95664.00;;;15.30;100.00
19457;BME280;9867;48.094;11.478;2022-07-10T05:44:42;95669.09;;;15.37;100.00
19457;BME280;9867;48.094;11.478;2022-07-10T05:47:10;95671.34;;;15.52;100.00
19457;BME280;9867;48.094;11.478;2022-07-10T05:49:39;95664.16;;;15.54;100.00
19457;BME280;9867;48.094;11.478;2022-07-10T05:52:07;95677.94;;;15.73;100.00
19457;BME280;9867;48.094;11.478;2022-07-10T05:54:34;95669.66;;;15.64;100.00
19457;BME280;9867;48.094;11.478;2022-07-10T05:57:04;95668.97;;;15.50;100.00
19457;BME280;9867;48.094;11.478;2022-07-10T05:59:33;95667.66;;;15.41;100.00
19457;BME280;9867;48.094;11.478;2022-07-10T06:02:02;95656.34;;;15.60;100.00
19457;BME280;9867;48.094;11.478;2022-07-10T06:04:30;95669.38;;;15.90;100.00
19457;BME280;9867;48.094;11.478;2022-07-10T06:06:59;95668.56;;;16.08;100.00
19457;BME280;9867;48.094;11.478;2022-07-10T06:09:27;95675.41;;;16.21;100.00
19457;BME280;9867;48.094;11.478;2022-07-10T06:11:55;95673.09;;;16.13;100.00
19457;BME280;9867;48.094;11.478;2022-07-10T06:14:24;95676.91;;;16.10;100.00
19457;BME280;9867;48.094;11.478;2022-07-10T06:16:52;95691.31;;;16.06;100.00
19457;BME280;9867;48.094;11.478;2022-07-10T06:19:20;95686.44;;;15.98;100.00
19457;BME280;9867;48.094;11.478;2022-07-10T06:21:48;95684.78;;;16.03;100.00
19457;BME280;9867;48.094;11.478;2022-07-10T06:24:36;95691.66;;;15.91;100.00
19457;BME280;9867;48.094;11.478;2022-07-10T06:27:05;95691.75;;;16.03;100.00
19457;BME280;9867;48.094;11.478;2022-07-10T06:29:34;95692.66;;;16.09;100.00
19457;BME280;9867;48.094;11.478;2022-07-10T06:32:02;95693.53;;;16.21;100.00
19457;BME280;9867;48.094;11.478;2022-07-10T06:34:30;95688.94;;;16.05;100.00
19457;BME280;9867;48.094;11.478;2022-07-10T06:36:58;95686.91;;;16.07;100.00
19457;BME280;9867;48.094;11.478;2022-07-10T06:39:28;95691.03;;;15.96;100.00
19457;BME280;9867;48.094;11.478;2022-07-10T06:42:00;95685.13;;;15.71;100.00
19457;BME280;9867;48.094;11.478;2022-07-10T06:44:29;95685.97;;;15.64;100.00
19457;BME280;9867;48.094;11.478;2022-07-10T06:46:59;95696.94;;;15.60;100.00
19457;BME280;9867;48.094;11.478;2022-07-10T06:49:45;95689.94;;;15.67;100.00
19457;BME280;9867;48.094;11.478;2022-07-10T06:52:15;95681.84;;;15.82;100.00
19457;BME280;9867;48.094;11.478;2022-07-10T06:54:43;95669.13;;;15.80;100.00
19457;BME280;9867;48.094;11.478;2022-07-10T06:57:11;95680.31;;;15.92;100.00
19457;BME280;9867;48.094;11.478;2022-07-10T06:59:39;95688.50;;;16.26;100.00
19457;BME280;9867;48.094;11.478;2022-07-10T07:02:08;95696.63;;;16.29;100.00
19457;BME280;9867;48.094;11.478;2022-07-10T07:04:36;95697.31;;;16.36;100.00
19457;BME280;9867;48.094;11.478;2022-07-10T07:07:04;95695.28;;;16.38;100.00
19457;BME280;9867;48.094;11.478;2022-07-10T07:09:32;95691.59;;;16.16;100.00
19457;BME280;9867;48.094;11.478;2022-07-10T07:12:00;95697.25;;;16.07;100.00
19457;BME280;9867;48.094;11.478;2022-07-10T07:14:28;95691.88;;;15.90;100.00
19457;BME280;9867;48.094;11.478;2022-07-10T07:17:00;95688.28;;;15.91;100.00
19457;BME280;9867;48.094;11.478;2022-07-10T07:19:33;95700.72;;;15.82;100.00
19457;BME280;9867;48.094;11.478;2022-07-10T07:22:15;95697.47;;;15.87;100.00
19457;BME280;9867;48.094;11.478;2022-07-10T07:25:00;95703.38;;;15.94;100.00
19457;BME280;9867;48.094;11.478;2022-07-10T07:27:29;95712.25;;;16.05;100.00
19457;BME280;9867;48.094;11.478;2022-07-10T07:29:56;95712.53;;;15.96;100.00
19457;BME280;9867;48.094;11.478;2022-07-10T07:32:24;95717.31;;;15.93;100.00
19457;BME280;9867;48.094;11.478;2022-07-10T07:34:53;95716.09;;;16.14;100.00
19457;BME280;9867;48.094;11.478;2022-07-10T07:37:21;95722.16;;;16.26;100.00
19457;BME280;9867;48.094;11.478;2022-07-10T07:39:50;95720.69;;;16.30;100.00
19457;BME280;9867;48.094;11.478;2022-07-10T07:42:18;95732.78;;;15.99;100.00
19457;BME280;9867;48.094;11.478;2022-07-10T07:44:46;95724.31;;;15.92;100.00
19457;BME280;9867;48.094;11.478;2022-07-10T07:47:13;95739.38;;;16.32;100.00
19457;BME280;9867;48.094;11.478;2022-07-10T07:49:41;95729.06;;;16.62;100.00
19457;BME280;9867;48.094;11.478;2022-07-10T07:52:11;95740.78;;;16.83;100.00
19457;BME280;9867;48.094;11.478;2022-07-10T07:54:38;95737.22;;;16.95;100.00
19457;BME280;9867;48.094;11.478;2022-07-10T07:57:06;95736.16;;;17.15;100.00
19457;BME280;9867;48.094;11.478;2022-07-10T07:59:34;95754.88;;;17.17;100.00
19457;BME280;9867;48.094;11.478;2022-07-10T08:02:03;95747.47;;;17.02;100.00
19457;BME280;9867;48.094;11.478;2022-07-10T08:04:31;95748.03;;;16.92;100.00
19457;BME280;9867;48.094;11.478;2022-07-10T08:06:59;95749.28;;;16.90;100.00
19457;BME280;9867;48.094;11.478;2022-07-10T08:09:30;95739.28;;;17.05;100.00
19457;BME280;9867;48.094;11.478;2022-07-10T08:11:57;95737.69;;;17.04;100.00
19457;BME280;9867;48.094;11.478;2022-07-10T08:14:26;95740.56;;;16.84;100.00
19457;BME280;9867;48.094;11.478;2022-07-10T08:16:54;95743.56;;;16.69;100.00
19457;BME280;9867;48.094;11.478;2022-07-10T08:19:22;95746.16;;;17.11;100.00
19457;BME280;9867;48.094;11.478;2022-07-10T08:21:50;95747.56;;;17.37;100.00
19457;BME280;9867;48.094;11.478;2022-07-10T08:24:18;95748.84;;;17.46;100.00
19457;BME280;9867;48.094;11.478;2022-07-10T08:26:47;95753.72;;;17.78;100.00
19457;BME280;9867;48.094;11.478;2022-07-10T08:29:15;95754.28;;;18.03;100.00
19457;BME280;9867;48.094;11.478;2022-07-10T08:31:43;95754.97;;;17.87;100.00
19457;BME280;9867;48.094;11.478;2022-07-10T08:34:11;95738.69;;;18.03;100.00
19457;BME280;9867;48.094;11.478;2022-07-10T08:36:39;95745.81;;;17.96;100.00
19457;BME280;9867;48.094;11.478;2022-07-10T08:39:13;95741.16;;;18.21;100.00
19457;BME280;9867;48.094;11.478;2022-07-10T08:41:42;95737.66;;;18.67;100.00
19457;BME280;9867;48.094;11.478;2022-07-10T08:44:13;95735.44;;;18.48;100.00
19457;BME280;9867;48.094;11.478;2022-07-10T08:46:41;95741.00;;;18.80;100.00
19457;BME280;9867;48.094;11.478;2022-07-10T08:49:10;95736.69;;;18.45;100.00
19457;BME280;9867;48.094;11.478;2022-07-10T08:51:41;95722.97;;;18.21;100.00
19457;BME280;9867;48.094;11.478;2022-07-10T08:54:14;95739.25;;;18.57;100.00
19457;BME280;9867;48.094;11.478;2022-07-10T08:56:48;95731.66;;;18.95;100.00
19457;BME280;9867;48.094;11.478;2022-07-10T08:59:18;95729.94;;;18.84;100.00
19457;BME280;9867;48.094;11.478;2022-07-10T09:01:47;95739.41;;;19.07;100.00
19457;BME280;9867;48.094;11.478;2022-07-10T09:04:16;95739.84;;;18.47;100.00
19457;BME280;9867;48.094;11.478;2022-07-10T09:06:45;95740.50;;;18.54;100.00
19457;BME280;9867;48.094;11.478;2022-07-10T09:09:14;95728.88;;;18.57;100.00
19457;BME280;9867;48.094;11.478;2022-07-10T09:11:42;95746.72;;;18.65;100.00
19457;BME280;9867;48.094;11.478;2022-07-10T09:14:11;95743.97;;;19.00;100.00
19457;BME280;9867;48.094;11.478;2022-07-10T09:16:42;95741.59;;;18.98;100.00
19457;BME280;9867;48.094;11.478;2022-07-10T09:19:18;95751.69;;;18.95;100.00
19457;BME280;9867;48.094;11.478;2022-07-10T09:21:47;95740.81;;;18.98;100.00
19457;BME280;9867;48.094;11.478;2022-07-10T09:24:16;95735.34;;;19.11;100.00
19457;BME280;9867;48.094;11.478;2022-07-10T09:26:57;95747.00;;;18.28;100.00
19457;BME280;9867;48.094;11.478;2022-07-10T09:29:26;95729.34;;;17.79;100.00
19457;BME280;9867;48.094;11.478;2022-07-10T09:31:57;95728.53;;;18.01;100.00
19457;BME280;9867;48.094;11.478;2022-07-10T09:34:35;95733.56;;;18.71;100.00
19457;BME280;9867;48.094;11.478;2022-07-10T09:37:20;95733.00;;;18.98;100.00
19457;BME280;9867;48.094;11.478;2022-07-10T09:39:57;95737.84;;;19.23;100.00
19457;BME280;9867;48.094;11.478;2022-07-10T09:42:29;95737.81;;;18.89;100.00
19457;BME280;9867;48.094;11.478;2022-07-10T09:45:17;95745.09;;;18.76;100.00
19457;BME280;9867;48.094;11.478;2022-07-10T09:47:55;95741.34;;;19.28;100.00
19457;BME280;9867;48.094;11.478;2022-07-10T09:50:26;95751.41;;;19.41;100.00
19457;BME280;9867;48.094;11.478;2022-07-10T09:52:56;95729.53;;;19.54;100.00
19457;BME280;9867;48.094;11.478;2022-07-10T09:55:25;95739.38;;;19.35;100.00
19457;BME280;9867;48.094;11.478;2022-07-10T09:57:56;95735.06;;;18.67;100.00
19457;BME280;9867;48.094;11.478;2022-07-10T10:00:26;95730.91;;;19.12;100.00
19457;BME280;9867;48.094;11.478;2022-07-10T10:03:00;95730.00;;;19.51;100.00
19457;BME280;9867;48.094;11.478;2022-07-10T10:05:36;95733.63;;;19.84;100.00
19457;BME280;9867;48.094;11.478;2022-07-10T10:08:09;95727.25;;;19.96;100.00
19457;BME280;9867;48.094;11.478;2022-07-10T10:10:43;95724.84;;;19.73;100.00
19457;BME280;9867;48.094;11.478;2022-07-10T10:13:15;95720.91;;;19.20;100.00
19457;BME280;9867;48.094;11.478;2022-07-10T10:15:44;95745.97;;;18.41;100.00
19457;BME280;9867;48.094;11.478;2022-07-10T10:18:17;95719.41;;;18.62;100.00
19457;BME280;9867;48.094;11.478;2022-07-10T10:20:47;95728.34;;;18.83;100.00
19457;BME280;9867;48.094;11.478;2022-07-10T10:23:15;95747.16;;;19.19;100.00
19457;BME280;9867;48.094;11.478;2022-07-10T10:25:47;95725.34;;;19.53;100.00
19457;BME280;9867;48.094;11.478;2022-07-10T10:28:16;95712.19;;;20.20;100.00
19457;BME280;9867;48.094;11.478;2022-07-10T10:30:47;95735.53;;;20.75;100.00
19457;BME280;9867;48.094;11.478;2022-07-10T10:33:43;95724.50;;;19.86;100.00
19457;BME280;9867;48.094;11.478;2022-07-10T10:36:15;95730.28;;;19.04;100.00
19457;BME280;9867;48.094;11.478;2022-07-10T10:39:09;95726.63;;;18.89;100.00
19457;BME280;9867;48.094;11.478;2022-07-10T10:41:41;95711.41;;;19.59;100.00
19457;BME280;9867;48.094;11.478;2022-07-10T10:44:28;95723.06;;;19.57;100.00
19457;BME280;9867;48.094;11.478;2022-07-10T10:47:00;95720.41;;;19.06;100.00
19457;BME280;9867;48.094;11.478;2022-07-10T10:49:55;95708.09;;;18.45;100.00
19457;BME280;9867;48.094;11.478;2022-07-10T10:52:28;95714.47;;;18.94;100.00
19457;BME280;9867;48.094;11.478;2022-07-10T10:55:03;95707.81;;;19.82;100.00
19457;BME280;9867;48.094;11.478;2022-07-10T10:57:38;95705.34;;;20.14;100.00
19457;BME280;9867;48.094;11.478;2022-07-10T11:00:13;95713.53;;;20.01;100.00
19457;BME280;9867;48.094;11.478;2022-07-10T11:02:42;95716.03;;;19.74;100.00
19457;BME280;9867;48.094;11.478;2022-07-10T11:05:40;95736.03;;;19.06;100.00
19457;BME280;9867;48.094;11.478;2022-07-10T11:08:12;95717.38;;;18.81;100.00
19457;BME280;9867;48.094;11.478;2022-07-10T11:10:42;95711.44;;;19.31;100.00
19457;BME280;9867;48.094;11.478;2022-07-10T11:13:15;95715.81;;;19.59;100.00
19457;BME280;9867;48.094;11.478;2022-07-10T11:15:44;95726.81;;;19.83;100.00
19457;BME280;9867;48.094;11.478;2022-07-10T11:18:14;95714.28;;;20.40;100.00
19457;BME280;9867;48.094;11.478;2022-07-10T11:20:45;95716.50;;;20.75;100.00
19457;BME280;9867;48.094;11.478;2022-07-10T11:23:45;95702.59;;;20.96;100.00
19457;BME280;9867;48.094;11.478;2022-07-10T11:26:24;95710.44;;;20.96;100.00
19457;BME280;9867;48.094;11.478;2022-07-10T11:28:53;95713.72;;;20.38;100.00
19457;BME280;9867;48.094;11.478;2022-07-10T11:31:27;95722.78;;;19.92;100.00
19457;BME280;9867;48.094;11.478;2022-07-10T11:33:56;95711.13;;;19.27;100.00
19457;BME280;9867;48.094;11.478;2022-07-10T11:36:27;95707.72;;;19.43;100.00
19457;BME280;9867;48.094;11.478;2022-07-10T11:38:59;95709.78;;;19.75;100.00
19457;BME280;9867;48.094;11.478;2022-07-10T11:41:28;95711.97;;;20.22;100.00
19457;BME280;9867;48.094;11.478;2022-07-10T11:43:57;95707.81;;;20.69;100.00
19457;BME280;9867;48.094;11.478;2022-07-10T11:46:26;95707.41;;;20.56;95.79
19457;BME280;9867;48.094;11.478;2022-07-10T11:48:55;95709.34;;;20.92;93.13
19457;BME280;9867;48.094;11.478;2022-07-10T11:51:27;95695.69;;;21.39;86.13
19457;BME280;9867;48.094;11.478;2022-07-10T11:53:56;95709.13;;;20.45;96.52
19457;BME280;9867;48.094;11.478;2022-07-10T11:56:25;95698.34;;;19.76;100.00
19457;BME280;9867;48.094;11.478;2022-07-10T11:58:55;95703.91;;;19.85;100.00
19457;BME280;9867;48.094;11.478;2022-07-10T12:01:22;95723.00;;;20.51;100.00
19457;BME280;9867;48.094;11.478;2022-07-10T12:03:55;95702.19;;;20.34;100.00
19457;BME280;9867;48.094;11.478;2022-07-10T12:06:24;95705.75;;;20.98;94.66
19457;BME280;9867;48.094;11.478;2022-07-10T12:08:54;95705.53;;;20.29;99.11
19457;BME280;9867;48.094;11.478;2022-07-10T12:11:23;95708.03;;;20.41;100.00
19457;BME280;9867;48.094;11.478;2022-07-10T12:13:51;95698.75;;;20.50;95.95
19457;BME280;9867;48.094;11.478;2022-07-10T12:16:20;95699.28;;;21.33;93.01
19457;BME280;9867;48.094;11.478;2022-07-10T12:18:50;95701.63;;;21.34;88.09
19457;BME280;9867;48.094;11.478;2022-07-10T12:21:18;95701.44;;;21.14;89.31
19457;BME280;9867;48.094;11.478;2022-07-10T12:23:46;95718.88;;;20.76;95.54
19457;BME280;9867;48.094;11.478;2022-07-10T12:26:16;95719.44;;;19.96;100.00
19457;BME280;9867;48.094;11.478;2022-07-10T12:28:56;95716.28;;;19.56;100.00
19457;BME280;9867;48.094;11.478;2022-07-10T12:31:26;95710.25;;;20.32;97.10
19457;BME280;9867;48.094;11.478;2022-07-10T12:33:56;95695.81;;;20.95;91.57
19457;BME280;9867;48.094;11.478;2022-07-10T12:36:41;95698.25;;;21.71;80.17
19457;BME280;9867;48.094;11.478;2022-07-10T12:39:11;95710.41;;;21.55;74.65
19457;BME280;9867;48.094;11.478;2022-07-10T12:41:58;95697.19;;;21.35;77.44
19457;BME280;9867;48.094;11.478;2022-07-10T12:44:34;95698.28;;;21.81;70.58
19457;BME280;9867;48.094;11.478;2022-07-10T12:47:03;95689.75;;;21.54;76.36
19457;BME280;9867;48.094;11.478;2022-07-10T12:49:52;95690.88;;;21.63;82.99
19457;BME280;9867;48.094;11.478;2022-07-10T12:52:22;95698.25;;;21.34;79.34
19457;BME280;9867;48.094;11.478;2022-07-10T12:55:10;95710.63;;;20.63;91.78
19457;BME280;9867;48.094;11.478;2022-07-10T12:57:49;95709.53;;;20.37;89.34
19457;BME280;9867;48.094;11.478;2022-07-10T13:00:19;95721.41;;;20.71;78.19
19457;BME280;9867;48.094;11.478;2022-07-10T13:02:48;95696.16;;;21.36;85.75
19457;BME280;9867;48.094;11.478;2022-07-10T13:05:27;95696.50;;;22.44;79.44